Oshima Airport
RJTO : now visible

Airfield :











YOU CAN JOIN US ON...

 
LOGIN :

Register | Disclaimer

   EN    FR    IT 

 









Legend :    VFR   Marginal VFR   IFR   Intensive IFR   Very Intensive IFR
Visi :
Ceiling :
>= 8 km
>= 3000ft
5 to 8 km
1000 to 3000 ft
1500m to 5 km
500 to 1000 ft
800 to 1500m
200 to 500 ft
< 800m
< 200 ft
Symbols :   Thunderstorms  Fog  Heavy snow  Heavy precipitations  Wind > 20 kt







- Airport Elevation : 130 ft
- IATA code : OIM


RJTO - Oshima

CURRENT METAR :
  • 230100Z 21015KT 9999 -TSRA FEW004 SCT007 FEW025CB BKN120 26/26 Q1007

EXPIRED METARs :
  • 230014Z 22018KT 7000 -TSRA FEW004 SCT007 FEW025CB BKN120 26/26 Q1006 RMK 1ST004 4ST007 2CB025 5AC120 A2973 FBL TS OHD MOV E
  • 230000Z 22018G28KT 7000 -TSRA FEW004 BKN007 SCT025CB BKN150 26/26 Q1006
  • 222333Z 23012G24KT 200V270 7000 -TSRA FEW004 BKN007 BKN020 FEW025CB 27/26 Q1006 RMK 2ST004 5ST007 5CU020 1CB025 A2973 FBL TS OHD MOV E
  • 222320Z 23013G23KT 200V270 3000 +TSRA BR FEW004 BKN007 BKN020 FEW025CB 26/26 Q1007 RMK 2ST004 5ST007 6CU020 2CB025 A2974 MOD TS OHD MOV E
  • 222310Z 22018G28KT 3000 +TSRA BR FEW007 SCT012 BKN020 SCT025CB 27/26 Q1006 RMK 2ST007 4CU012 6CU020 3CB025 A2973 MOD TS OHD MOV E

TAF N/A
No reported NOTAMs for that airfield.



MET'MAP, your aeronautical weather chart ! - Copyright ORBIFLY December 2007 - Disclaimer

ORBIFLY MET'MAP TEAM :

Programming & Development : Alexandra Zaïnal
Concept & Development : Baudouin d'Aumeries
Co-Development & Prog : Marc-Olivier Méhu
Technical & hardware support : Manuel Goepfert

Contact : metmap@orbifly.com




SOURCES & CREDITS :

   NOAA       Earth
Advisory